createdAt,value
2023-09-02T00:00:38.326Z,6.78
2023-09-02T00:03:07.339Z,6.18
2023-09-02T00:05:35.034Z,5.03
2023-09-02T00:08:03.472Z,5.30
2023-09-02T00:10:31.102Z,5.38
2023-09-02T00:12:59.105Z,4.60
2023-09-02T00:15:26.643Z,5.60
2023-09-02T00:17:54.193Z,4.63
2023-09-02T00:20:23.870Z,7.50
2023-09-02T00:22:52.359Z,6.38
2023-09-02T00:25:20.406Z,13.23
2023-09-02T00:27:47.919Z,8.10
2023-09-02T00:30:16.105Z,7.20
2023-09-02T00:32:44.434Z,6.80
2023-09-02T00:35:12.334Z,6.10
2023-09-02T00:37:41.375Z,5.60
2023-09-02T00:40:14.832Z,6.15
2023-09-02T00:42:43.947Z,4.80
2023-09-02T00:45:12.298Z,4.72
2023-09-02T00:47:40.015Z,5.90
2023-09-02T00:50:09.108Z,6.00
2023-09-02T00:52:36.897Z,4.53
2023-09-02T00:55:06.536Z,5.45
2023-09-02T01:00:02.693Z,7.18
2023-09-02T01:02:32.351Z,4.88
2023-09-02T01:07:28.006Z,4.85
2023-09-02T01:09:57.596Z,4.00
2023-09-02T01:12:28.759Z,3.90
2023-09-02T01:14:58.393Z,3.75
2023-09-02T01:17:27.581Z,4.05
2023-09-02T01:19:56.774Z,4.53
2023-09-02T01:22:42.510Z,4.20
2023-09-02T01:25:30.274Z,3.80
2023-09-02T01:28:04.448Z,5.55
2023-09-02T01:30:34.564Z,5.72
2023-09-02T01:33:05.804Z,5.00
2023-09-02T01:35:35.818Z,4.78
2023-09-02T01:38:07.059Z,6.32
2023-09-02T01:40:35.651Z,6.82
2023-09-02T01:43:05.609Z,6.53
2023-09-02T01:45:35.600Z,6.50
2023-09-02T01:48:04.692Z,6.18
2023-09-02T01:50:34.944Z,4.80
2023-09-02T01:53:03.541Z,4.68
2023-09-02T01:55:33.488Z,5.30
2023-09-02T01:58:02.165Z,4.22
2023-09-02T02:00:31.578Z,4.70
2023-09-02T02:02:59.290Z,3.90
2023-09-02T02:05:38.298Z,4.30
2023-09-02T02:08:12.317Z,3.70
2023-09-02T02:10:43.056Z,3.80
2023-09-02T02:13:11.089Z,4.57
2023-09-02T02:15:40.240Z,5.22
2023-09-02T02:18:07.934Z,5.70
2023-09-02T02:20:45.455Z,6.53
2023-09-02T02:23:13.428Z,6.75
2023-09-02T02:25:41.745Z,5.90
2023-09-02T02:28:09.351Z,5.57
2023-09-02T02:30:37.516Z,4.75
2023-09-02T02:33:06.903Z,4.78
2023-09-02T02:35:34.556Z,4.32
2023-09-02T02:38:02.210Z,4.10
2023-09-02T02:40:29.895Z,4.00
2023-09-02T02:42:57.431Z,3.72
2023-09-02T02:45:25.172Z,4.07
2023-09-02T02:47:52.868Z,3.70
2023-09-02T02:50:23.285Z,3.45
2023-09-02T02:52:51.317Z,3.15
2023-09-02T02:55:19.406Z,3.45
2023-09-02T02:57:47.093Z,3.25
2023-09-02T03:00:15.686Z,4.28
2023-09-02T03:02:43.544Z,5.88
2023-09-02T03:05:11.287Z,11.95
2023-09-02T03:07:41.821Z,8.35
2023-09-02T03:10:10.199Z,5.25
2023-09-02T03:12:38.301Z,5.40
2023-09-02T03:15:09.425Z,4.80
2023-09-02T03:17:37.937Z,4.17
2023-09-02T03:20:08.346Z,3.70
2023-09-02T03:22:43.240Z,3.38
2023-09-02T03:25:11.363Z,3.53
2023-09-02T03:27:39.287Z,4.05
2023-09-02T03:30:09.066Z,6.53
2023-09-02T03:32:37.264Z,4.80
2023-09-02T03:35:05.569Z,4.22
2023-09-02T03:37:33.293Z,4.00
2023-09-02T03:40:03.561Z,3.40
2023-09-02T03:42:31.206Z,3.70
2023-09-02T03:44:59.244Z,3.53
2023-09-02T03:47:31.376Z,3.40
2023-09-02T03:50:01.691Z,3.72
2023-09-02T03:52:30.627Z,3.83
2023-09-02T03:54:58.805Z,3.95
2023-09-02T03:57:28.226Z,3.22
2023-09-02T03:59:55.850Z,3.28
2023-09-02T04:02:23.535Z,3.50
2023-09-02T04:04:51.530Z,3.38
2023-09-02T04:07:19.252Z,3.17
2023-09-02T04:09:46.816Z,3.03
2023-09-02T04:12:14.661Z,3.45
2023-09-02T04:14:44.621Z,3.05
2023-09-02T04:17:13.148Z,3.45
2023-09-02T04:19:41.291Z,3.15
2023-09-02T04:22:09.011Z,3.65
2023-09-02T04:24:36.875Z,3.08
2023-09-02T04:27:05.807Z,3.58
2023-09-02T04:29:33.906Z,3.17
2023-09-02T04:32:03.727Z,3.08
2023-09-02T04:34:31.295Z,3.40
2023-09-02T04:36:59.513Z,3.00
2023-09-02T04:39:27.208Z,3.28
2023-09-02T04:41:54.819Z,3.65
2023-09-02T04:44:22.697Z,3.50
2023-09-02T04:46:50.331Z,4.65
2023-09-02T04:49:20.044Z,3.63
2023-09-02T04:51:48.937Z,3.33
2023-09-02T04:54:18.760Z,3.30
2023-09-02T04:56:47.303Z,3.20
2023-09-02T04:59:15.848Z,3.45
2023-09-02T05:01:43.959Z,3.20
2023-09-02T05:04:12.375Z,3.00
2023-09-02T05:06:42.577Z,3.03
2023-09-02T05:11:38.053Z,3.22
2023-09-02T05:14:05.883Z,3.45
2023-09-02T05:16:35.029Z,3.17
2023-09-02T05:19:03.600Z,3.40
2023-09-02T05:21:31.838Z,2.85
2023-09-02T05:24:01.385Z,3.50
2023-09-02T05:26:30.124Z,4.25
2023-09-02T05:28:58.673Z,3.17
2023-09-02T05:31:26.619Z,3.70
2023-09-02T05:33:54.220Z,3.72
2023-09-02T05:36:22.110Z,3.20
2023-09-02T05:38:49.735Z,3.08
2023-09-02T05:41:18.796Z,3.50
2023-09-02T05:43:46.536Z,3.83
2023-09-02T05:46:14.152Z,3.22
2023-09-02T05:48:42.931Z,3.63
2023-09-02T05:51:11.022Z,3.10
2023-09-02T05:53:40.697Z,3.40
2023-09-02T05:56:08.721Z,3.28
2023-09-02T05:58:37.845Z,3.90
2023-09-02T06:01:07.053Z,3.30
2023-09-02T06:06:09.844Z,4.25
2023-09-02T06:08:37.991Z,3.63
2023-09-02T06:11:06.708Z,4.20
2023-09-02T06:13:36.366Z,5.13
2023-09-02T06:16:07.750Z,4.45
2023-09-02T06:18:37.556Z,5.68
2023-09-02T06:23:42.706Z,4.78
2023-09-02T06:26:12.027Z,5.18
2023-09-02T06:28:41.424Z,4.35
2023-09-02T06:31:12.419Z,5.18
2023-09-02T06:33:41.031Z,5.20
2023-09-02T06:36:12.961Z,10.80
2023-09-02T06:38:41.653Z,6.90
2023-09-02T06:41:13.889Z,7.07
2023-09-02T06:43:43.179Z,6.45
2023-09-02T06:46:14.806Z,6.13
2023-09-02T06:48:43.821Z,6.20
2023-09-02T06:51:12.527Z,5.87
2023-09-02T06:53:41.254Z,7.17
2023-09-02T06:56:09.508Z,8.85
2023-09-02T06:58:39.567Z,7.40
2023-09-02T07:01:07.984Z,6.25
2023-09-02T07:03:37.066Z,5.78
2023-09-02T07:06:08.316Z,6.03
2023-09-02T07:08:36.231Z,6.10
2023-09-02T07:11:03.849Z,6.63
2023-09-02T07:13:31.500Z,7.25
2023-09-02T07:16:00.734Z,6.75
2023-09-02T07:18:28.618Z,7.32
2023-09-02T07:21:00.336Z,6.65
2023-09-02T07:23:28.464Z,6.95
2023-09-02T07:25:57.093Z,7.20
2023-09-02T07:28:24.667Z,8.18
2023-09-02T07:30:52.299Z,8.32
2023-09-02T07:33:21.327Z,11.63
2023-09-02T07:35:49.322Z,9.13
2023-09-02T07:38:18.372Z,8.63
2023-09-02T07:40:46.114Z,8.80
2023-09-02T07:43:13.621Z,7.93
2023-09-02T07:45:41.444Z,7.40
2023-09-02T07:48:09.173Z,16.27
2023-09-02T07:50:36.765Z,12.77
2023-09-02T07:53:04.767Z,12.05
2023-09-02T07:55:34.148Z,9.95
2023-09-02T07:58:01.797Z,9.20
2023-09-02T08:00:29.815Z,11.88
2023-09-02T08:02:58.771Z,14.85
2023-09-02T08:05:27.139Z,15.23
2023-09-02T08:07:55.580Z,12.35
2023-09-02T08:10:24.397Z,8.50
2023-09-02T08:12:53.881Z,8.50
2023-09-02T08:15:22.473Z,9.85
2023-09-02T08:17:51.606Z,10.63
2023-09-02T08:20:19.543Z,9.05
2023-09-02T08:22:47.158Z,10.35
2023-09-02T08:25:14.672Z,9.18
2023-09-02T08:27:45.206Z,6.93
2023-09-02T08:30:15.003Z,9.98
2023-09-02T08:32:42.848Z,9.65
2023-09-02T08:35:11.201Z,7.47
2023-09-02T08:37:38.729Z,9.23
2023-09-02T08:40:08.254Z,8.23
2023-09-02T08:42:36.284Z,7.78
2023-09-02T08:45:08.441Z,12.60
2023-09-02T08:47:40.213Z,8.82
2023-09-02T08:50:08.942Z,7.18
2023-09-02T08:52:37.063Z,6.78
2023-09-02T08:55:05.367Z,7.18
2023-09-02T08:57:35.215Z,6.93
2023-09-02T09:00:03.977Z,6.88
2023-09-02T09:02:34.801Z,7.18
2023-09-02T09:05:07.613Z,7.28
2023-09-02T09:07:36.878Z,6.50
2023-09-02T09:10:10.225Z,6.30
2023-09-02T09:12:39.560Z,8.07
2023-09-02T09:15:10.886Z,11.75
2023-09-02T09:17:39.892Z,9.82
2023-09-02T09:20:11.920Z,19.17
2023-09-02T09:22:41.708Z,12.35
2023-09-02T09:25:13.259Z,9.93
2023-09-02T09:27:42.329Z,8.48
2023-09-02T09:30:27.610Z,8.18
2023-09-02T09:32:58.887Z,7.68
2023-09-02T09:35:28.365Z,8.70
2023-09-02T09:40:31.328Z,8.07
2023-09-02T09:42:59.877Z,7.53
2023-09-02T09:45:27.638Z,8.00
2023-09-02T09:47:58.109Z,8.52
2023-09-02T09:50:29.015Z,8.82
2023-09-02T09:53:01.529Z,8.73
2023-09-02T09:55:30.405Z,9.18
2023-09-02T09:57:59.897Z,10.33
2023-09-02T10:00:29.825Z,9.95
2023-09-02T10:02:59.356Z,11.85
2023-09-02T10:08:00.030Z,17.25
2023-09-02T10:10:33.570Z,16.70
2023-09-02T10:13:02.518Z,15.43
2023-09-02T10:15:30.969Z,18.60
2023-09-02T10:18:01.516Z,19.00
2023-09-02T10:20:32.382Z,11.05
2023-09-02T10:23:05.917Z,12.65
2023-09-02T10:25:44.314Z,11.30
2023-09-02T10:28:15.454Z,9.63
2023-09-02T10:30:47.621Z,11.32
2023-09-02T10:33:21.925Z,11.38
2023-09-02T10:35:58.184Z,9.93
2023-09-02T10:38:28.143Z,10.38
2023-09-02T10:41:02.920Z,8.25
2023-09-02T10:43:32.083Z,9.00
2023-09-02T10:46:00.677Z,9.80
2023-09-02T10:48:28.242Z,9.45
2023-09-02T10:50:57.963Z,11.18
2023-09-02T10:56:07.526Z,9.73
2023-09-02T10:58:47.855Z,10.20
2023-09-02T11:01:15.623Z,9.45
2023-09-02T11:03:43.707Z,8.55
2023-09-02T11:06:12.831Z,14.88
2023-09-02T11:08:47.154Z,14.90
2023-09-02T11:11:14.753Z,10.95
2023-09-02T11:14:19.555Z,13.80
2023-09-02T11:17:25.833Z,9.50
2023-09-02T11:20:01.407Z,8.73
2023-09-02T11:22:50.797Z,10.35
2023-09-02T11:25:32.782Z,10.32
2023-09-02T11:28:01.559Z,11.95
2023-09-02T11:30:29.772Z,14.40
2023-09-02T11:32:58.092Z,8.88
2023-09-02T11:35:27.398Z,8.02
2023-09-02T11:37:57.142Z,7.40
2023-09-02T11:42:53.791Z,6.38
2023-09-02T11:45:21.772Z,6.80
2023-09-02T11:47:50.304Z,6.68
2023-09-02T11:50:19.335Z,5.90
2023-09-02T11:52:47.693Z,6.65
2023-09-02T11:55:17.716Z,7.40
2023-09-02T11:57:46.782Z,9.32
2023-09-02T12:00:18.609Z,11.43
2023-09-02T12:02:47.514Z,10.05
2023-09-02T12:05:15.872Z,8.10
2023-09-02T12:07:44.484Z,7.28
2023-09-02T12:10:13.484Z,6.57
2023-09-02T12:12:44.382Z,7.93
2023-09-02T12:15:13.176Z,19.75
2023-09-02T12:17:41.299Z,13.73
2023-09-02T12:20:10.913Z,10.68
2023-09-02T12:22:39.061Z,8.77
2023-09-02T12:25:18.167Z,7.47
2023-09-02T12:27:48.363Z,10.88
2023-09-02T12:30:26.464Z,11.93
2023-09-02T12:32:55.084Z,11.98
2023-09-02T12:35:22.913Z,16.85
2023-09-02T12:38:01.560Z,12.75
2023-09-02T12:40:29.459Z,8.50
2023-09-02T12:42:58.970Z,7.80
2023-09-02T12:45:30.338Z,8.80
2023-09-02T12:47:59.965Z,8.43
2023-09-02T12:50:28.872Z,7.60
2023-09-02T12:52:57.753Z,7.30
2023-09-02T12:55:25.938Z,8.07
2023-09-02T12:57:53.958Z,7.60
2023-09-02T13:00:22.944Z,6.32
2023-09-02T13:02:54.135Z,7.25
2023-09-02T13:05:21.965Z,8.02
2023-09-02T13:07:49.527Z,9.10
2023-09-02T13:10:17.348Z,19.65
2023-09-02T13:12:44.820Z,14.07
2023-09-02T13:15:12.397Z,13.35
2023-09-02T13:17:41.801Z,17.38
2023-09-02T13:20:12.371Z,13.82
2023-09-02T13:22:41.142Z,12.73
2023-09-02T13:25:09.053Z,14.13
2023-09-02T13:27:37.548Z,11.05
2023-09-02T13:30:06.338Z,10.27
2023-09-02T13:32:36.944Z,12.73
2023-09-02T13:35:16.247Z,11.13
2023-09-02T13:37:44.834Z,10.98
2023-09-02T13:40:36.232Z,12.65
2023-09-02T13:43:09.055Z,11.23
2023-09-02T13:45:38.487Z,14.32
2023-09-02T13:48:07.255Z,12.05
2023-09-02T13:50:37.142Z,12.98
2023-09-02T13:53:05.508Z,11.60
2023-09-02T13:55:38.193Z,8.95
2023-09-02T13:58:06.699Z,10.60
2023-09-02T14:00:36.795Z,13.45
2023-09-02T14:03:08.572Z,14.48
2023-09-02T14:05:38.467Z,15.32
2023-09-02T14:08:07.103Z,12.45
2023-09-02T14:10:35.013Z,8.98
2023-09-02T14:13:03.453Z,10.15
2023-09-02T14:15:31.250Z,10.40
2023-09-02T14:17:58.958Z,8.73
2023-09-02T14:20:26.599Z,8.73
2023-09-02T14:22:55.676Z,9.32
2023-09-02T14:25:23.227Z,8.60
2023-09-02T14:27:50.991Z,8.90
2023-09-02T14:30:19.194Z,10.88
2023-09-02T14:32:48.343Z,9.48
2023-09-02T14:35:16.650Z,11.07
2023-09-02T14:37:44.279Z,10.88
2023-09-02T14:40:13.435Z,9.18
2023-09-02T14:42:41.221Z,14.57
2023-09-02T14:45:09.753Z,15.82
2023-09-02T14:47:38.525Z,12.75
2023-09-02T14:50:07.953Z,14.75
2023-09-02T14:52:35.998Z,11.93
2023-09-02T14:55:06.038Z,11.27
2023-09-02T14:57:37.413Z,11.27
2023-09-02T15:00:06.849Z,9.77
2023-09-02T15:02:39.939Z,10.55
2023-09-02T15:05:10.248Z,11.43
2023-09-02T15:07:38.902Z,9.07
2023-09-02T15:10:08.373Z,8.70
2023-09-02T15:15:09.047Z,12.85
2023-09-02T15:17:37.610Z,8.82
2023-09-02T15:20:11.187Z,8.48
2023-09-02T15:22:39.450Z,8.70
2023-09-02T15:25:11.089Z,10.60
2023-09-02T15:27:41.844Z,8.88
2023-09-02T15:30:12.474Z,8.65
2023-09-02T15:32:40.933Z,13.55
2023-09-02T15:35:09.677Z,10.50
2023-09-02T15:37:38.403Z,7.18
2023-09-02T15:40:07.205Z,8.75
2023-09-02T15:42:35.743Z,11.23
2023-09-02T15:45:05.233Z,11.43
2023-09-02T15:47:32.799Z,8.27
2023-09-02T15:50:01.552Z,9.05
2023-09-02T15:52:29.539Z,9.10
2023-09-02T15:54:57.210Z,8.50
2023-09-02T15:57:26.309Z,7.68
2023-09-02T15:59:54.401Z,9.55
2023-09-02T16:02:24.209Z,7.88
2023-09-02T16:04:52.123Z,7.57
2023-09-02T16:07:19.594Z,8.00
2023-09-02T16:09:47.828Z,12.57
2023-09-02T16:12:15.515Z,10.05
2023-09-02T16:14:44.435Z,9.77
2023-09-02T16:17:24.290Z,8.18
2023-09-02T16:19:53.059Z,11.43
2023-09-02T16:22:21.200Z,9.23
2023-09-02T16:24:49.683Z,8.38
2023-09-02T16:27:17.771Z,16.13
2023-09-02T16:29:48.184Z,11.55
2023-09-02T16:32:17.309Z,11.20
2023-09-02T16:34:47.884Z,9.05
2023-09-02T16:37:17.746Z,10.00
2023-09-02T16:39:45.839Z,12.50
2023-09-02T16:42:14.376Z,9.73
2023-09-02T16:44:46.290Z,10.07
2023-09-02T16:47:16.841Z,10.23
2023-09-02T16:49:44.406Z,11.30
2023-09-02T16:52:13.949Z,10.10
2023-09-02T16:54:42.596Z,10.45
2023-09-02T16:57:11.809Z,12.10
2023-09-02T16:59:40.739Z,8.75
2023-09-02T17:02:20.324Z,9.75
2023-09-02T17:04:48.483Z,11.88
2023-09-02T17:07:18.172Z,12.23
2023-09-02T17:09:46.640Z,8.77
2023-09-02T17:12:15.213Z,8.05
2023-09-02T17:14:44.021Z,12.55
2023-09-02T17:17:12.571Z,9.40
2023-09-02T17:19:40.778Z,8.65
2023-09-02T17:22:08.276Z,8.50
2023-09-02T17:24:37.765Z,11.38
2023-09-02T17:27:19.939Z,11.55
2023-09-02T17:29:49.355Z,9.95
2023-09-02T17:32:17.330Z,9.35
2023-09-02T17:34:45.901Z,12.38
2023-09-02T17:37:13.399Z,11.20
2023-09-02T17:39:42.987Z,9.80
2023-09-02T17:42:12.917Z,12.90
2023-09-02T17:44:45.566Z,11.45
2023-09-02T17:47:13.629Z,9.50
2023-09-02T17:49:41.329Z,8.70
2023-09-02T17:52:09.614Z,9.15
2023-09-02T17:54:37.801Z,11.77
2023-09-02T17:57:07.505Z,11.73
2023-09-02T17:59:35.164Z,9.15
2023-09-02T18:02:05.095Z,11.73
2023-09-02T18:04:34.273Z,10.52
2023-09-02T18:07:01.993Z,10.48
2023-09-02T18:09:29.894Z,9.32
2023-09-02T18:11:57.420Z,16.73
2023-09-02T18:14:26.450Z,13.02
2023-09-02T18:16:54.003Z,11.35
2023-09-02T18:19:21.653Z,16.98
2023-09-02T18:21:50.018Z,11.45
2023-09-02T18:24:17.985Z,10.32
2023-09-02T18:26:45.570Z,9.30
2023-09-02T18:29:14.149Z,10.48
2023-09-02T18:31:44.087Z,13.88
2023-09-02T18:34:11.709Z,32.85
2023-09-02T18:36:39.730Z,27.58
2023-09-02T18:39:08.019Z,188.65
2023-09-02T18:41:36.144Z,105.38
2023-09-02T18:44:04.841Z,82.32
2023-09-02T18:46:32.514Z,50.47
2023-09-02T18:49:01.993Z,23.73
2023-09-02T18:51:30.795Z,26.80
2023-09-02T18:53:58.555Z,20.38
2023-09-02T18:56:26.374Z,15.40
2023-09-02T18:58:53.854Z,21.58
2023-09-02T19:01:21.502Z,21.25
2023-09-02T19:03:50.378Z,18.77
2023-09-02T19:06:19.368Z,17.50
2023-09-02T19:08:47.372Z,19.15
2023-09-02T19:11:15.579Z,19.65
2023-09-02T19:13:44.267Z,20.27
2023-09-02T19:16:12.370Z,20.05
2023-09-02T19:18:40.658Z,17.67
2023-09-02T19:21:08.853Z,16.58
2023-09-02T19:23:38.032Z,14.50
2023-09-02T19:26:07.330Z,17.52
2023-09-02T19:28:35.333Z,14.25
2023-09-02T19:31:03.005Z,13.50
2023-09-02T19:33:30.715Z,13.40
2023-09-02T19:35:58.525Z,13.52
2023-09-02T19:38:26.050Z,12.63
2023-09-02T19:40:56.089Z,12.70
2023-09-02T19:43:23.673Z,12.90
2023-09-02T19:45:51.448Z,12.15
2023-09-02T19:48:19.140Z,10.90
2023-09-02T19:50:47.513Z,10.35
2023-09-02T19:53:16.011Z,12.73
2023-09-02T19:55:45.572Z,13.05
2023-09-02T19:58:15.240Z,12.35
2023-09-02T20:00:44.107Z,10.70
2023-09-02T20:03:13.538Z,11.63
2023-09-02T20:05:41.372Z,10.52
2023-09-02T20:08:09.566Z,11.00
2023-09-02T20:10:37.622Z,10.00
2023-09-02T20:13:06.178Z,12.60
2023-09-02T20:15:36.415Z,12.18
2023-09-02T20:20:34.379Z,10.60
2023-09-02T20:23:02.395Z,11.23
2023-09-02T20:25:31.803Z,12.07
2023-09-02T20:28:00.381Z,11.00
2023-09-02T20:30:29.283Z,9.85
2023-09-02T20:32:58.590Z,9.45
2023-09-02T20:35:26.472Z,8.48
2023-09-02T20:37:55.069Z,8.85
2023-09-02T20:40:22.626Z,8.57
2023-09-02T20:42:50.829Z,9.35
2023-09-02T20:45:19.653Z,36.70
2023-09-02T20:47:47.474Z,30.33
2023-09-02T20:50:17.895Z,22.30
2023-09-02T20:52:45.945Z,16.30
2023-09-02T20:55:14.478Z,18.42
2023-09-02T20:57:45.503Z,67.57
2023-09-02T21:00:15.001Z,25.80
2023-09-02T21:02:43.713Z,20.33
2023-09-02T21:05:11.728Z,17.90
2023-09-02T21:07:41.804Z,15.70
2023-09-02T21:10:10.847Z,15.45
2023-09-02T21:12:39.034Z,16.80
2023-09-02T21:15:08.531Z,14.57
2023-09-02T21:17:36.779Z,12.93
2023-09-02T21:20:07.354Z,13.95
2023-09-02T21:22:35.908Z,15.15
2023-09-02T21:25:05.989Z,13.65
2023-09-02T21:27:34.544Z,12.32
2023-09-02T21:30:02.447Z,12.43
2023-09-02T21:32:30.905Z,15.05
2023-09-02T21:34:58.777Z,11.35
2023-09-02T21:37:26.580Z,10.90
2023-09-02T21:39:55.303Z,11.38
2023-09-02T21:42:25.567Z,12.88
2023-09-02T21:47:21.793Z,11.73
2023-09-02T21:49:50.252Z,11.38
2023-09-02T21:52:21.288Z,10.52
2023-09-02T21:54:51.844Z,11.85
2023-09-02T21:57:19.889Z,8.90
2023-09-02T21:59:49.427Z,12.10
2023-09-02T22:02:17.540Z,11.07
2023-09-02T22:04:45.940Z,9.77
2023-09-02T22:07:13.507Z,13.05
2023-09-02T22:09:40.991Z,10.93
2023-09-02T22:12:09.338Z,11.43
2023-09-02T22:14:37.485Z,11.05
2023-09-02T22:17:06.730Z,10.50
2023-09-02T22:19:34.344Z,9.32
2023-09-02T22:22:02.676Z,12.70
2023-09-02T22:24:30.956Z,9.30
2023-09-02T22:26:59.461Z,11.53
2023-09-02T22:29:27.655Z,9.68
2023-09-02T22:31:55.863Z,7.88
2023-09-02T22:34:25.759Z,9.93
2023-09-02T22:36:54.529Z,10.05
2023-09-02T22:39:22.353Z,9.13
2023-09-02T22:41:49.864Z,8.25
2023-09-02T22:44:17.514Z,8.95
2023-09-02T22:46:45.110Z,12.73
2023-09-02T22:49:26.476Z,9.98
2023-09-02T22:51:54.156Z,9.25
2023-09-02T22:54:21.613Z,7.70
2023-09-02T22:56:49.174Z,10.27
2023-09-02T22:59:17.123Z,8.43
2023-09-02T23:01:44.844Z,8.00
2023-09-02T23:04:12.547Z,9.43
2023-09-02T23:06:41.588Z,7.63
2023-09-02T23:09:09.343Z,6.93
2023-09-02T23:11:37.112Z,7.10
2023-09-02T23:14:04.985Z,8.10
2023-09-02T23:16:32.671Z,6.97
2023-09-02T23:19:00.413Z,5.97
2023-09-02T23:21:28.584Z,7.80
2023-09-02T23:23:57.818Z,10.48
2023-09-02T23:26:25.581Z,7.68
2023-09-02T23:28:53.772Z,14.43
2023-09-02T23:31:21.947Z,12.80
2023-09-02T23:33:50.049Z,8.57
2023-09-02T23:36:17.621Z,8.43
2023-09-02T23:38:45.245Z,8.27
2023-09-02T23:41:14.729Z,8.90
2023-09-02T23:43:42.330Z,9.07
2023-09-02T23:46:14.286Z,11.55
2023-09-02T23:48:41.746Z,8.73
2023-09-02T23:51:10.042Z,10.25
2023-09-02T23:53:37.669Z,10.75
2023-09-02T23:56:05.242Z,11.73
2023-09-02T23:58:34.212Z,13.43
